La Isla, Colorado
Current Conditions -  °F | °C
As of 4:52 PM on Friday 21 Nov 2014 (Local Time) from KALS Reporting Station
Clear Clear  
Wind Chill: 38°   Ceiling: Unl
Heat Index: 38°   Visibility: 10mi
Dew Point: 13°   Wind: 3mph
Humidity: 36%   Direction: 120°ESE
Pressure: 30.04"   Gusts: NA
Location:  37.1816°N, 106.262°W
Report Text: KALS 212352Z AUTO 12003KT 10SM CLR 03/M11 A3004 RMK AO2 SLP205 T00331106 10072 20011 53003
Loading
Personal Weather Stations






























Interactive Weather Map New forecast layout! Learn more

10-Day Weather Forecast

Advertisements
Track Severe Weather on mobile